Time;durP1;ratioP1;P1;durP2;ratioP2;P2;SDS_P1;SDS_P2;PMS_P1;PMS_P2;Temp;Humidity;BMP_temperature;BMP_pressure;BME280_temperature;BME280_humidity;BME280_pressure;Samples;Min_cycle;Max_cycle;Signal;HPM_P1;HPM_P2
2023/10/17 00:02:24;;;;;;;3.70;1.60;;;;;;;;;;5055196;28;20197;-90
2023/10/17 00:04:52;;;;;;;2.10;1.57;;;;;;;;;;5054346;28;20202;-91
2023/10/17 00:07:20;;;;;;;2.93;1.17;;;;;;;;;;5055202;28;20196;-90
2023/10/17 00:09:48;;;;;;;2.93;1.40;;;;;;;;;;5054984;28;20199;-90
2023/10/17 00:12:33;;;;;;;4.07;1.60;;;;;;;;;;5055230;28;20242;-90
2023/10/17 00:15:09;;;;;;;5.07;1.27;;;;;;;;;;5054518;28;20198;-89
2023/10/17 00:17:37;;;;;;;6.00;1.40;;;;;;;;;;5038476;28;20846;-90
2023/10/17 00:20:16;;;;;;;2.43;1.30;;;;;;;;;;5054140;28;20250;-90
2023/10/17 00:22:43;;;;;;;3.93;1.27;;;;;;;;;;5055311;28;20227;-90
2023/10/17 00:25:11;;;;;;;3.33;1.40;;;;;;;;;;5058055;28;20707;-90
2023/10/17 00:27:39;;;;;;;3.27;1.50;;;;;;;;;;5060399;28;20227;-91
2023/10/17 00:30:11;;;;;;;4.10;1.50;;;;;;;;;;5059109;28;20196;-90
2023/10/17 00:32:41;;;;;;;1.93;1.20;;;;;;;;;;5058688;28;20256;-90
2023/10/17 00:35:13;;;;;;;3.87;1.27;;;;;;;;;;5059050;28;20231;-92
2023/10/17 00:37:46;;;;;;;2.63;1.33;;;;;;;;;;5054203;28;20277;-90
2023/10/17 00:40:34;;;;;;;2.60;1.47;;;;;;;;;;5053603;28;20204;-90
2023/10/17 00:43:04;;;;;;;3.63;1.57;;;;;;;;;;5054262;28;20568;-90
2023/10/17 00:45:33;;;;;;;2.10;1.20;;;;;;;;;;5053813;28;20192;-90
2023/10/17 00:48:00;;;;;;;2.87;1.40;;;;;;;;;;5052917;28;20727;-90
2023/10/17 00:50:29;;;;;;;3.83;1.47;;;;;;;;;;5053761;28;20700;-90
2023/10/17 00:52:56;;;;;;;1.83;1.30;;;;;;;;;;5054562;28;20191;-91
2023/10/17 00:55:26;;;;;;;2.97;1.60;;;;;;;;;;5054037;28;20575;-90
2023/10/17 00:57:54;;;;;;;3.57;1.80;;;;;;;;;;5054080;28;20601;-90
2023/10/17 01:00:35;;;;;;;3.83;1.50;;;;;;;;;;5054169;28;20229;-90
2023/10/17 01:03:08;;;;;;;2.37;1.37;;;;;;;;;;5053697;28;20285;-90
2023/10/17 01:05:42;;;;;;;2.13;1.40;;;;;;;;;;5053838;28;20238;-90
2023/10/17 01:08:09;;;;;;;4.00;1.53;;;;;;;;;;5053536;28;20287;-91
2023/10/17 01:10:37;;;;;;;3.70;1.27;;;;;;;;;;5054159;28;20303;-89
2023/10/17 01:13:05;;;;;;;3.57;1.50;;;;;;;;;;5052871;28;20204;-90
2023/10/17 01:15:37;;;;;;;5.17;1.80;;;;;;;;;;5053566;28;20204;-89
2023/10/17 01:18:05;;;;;;;4.13;1.53;;;;;;;;;;5053422;28;20638;-90
2023/10/17 01:20:32;;;;;;;2.07;1.20;;;;;;;;;;5053735;28;20219;-89
2023/10/17 01:23:00;;;;;;;3.53;1.50;;;;;;;;;;5035983;28;20287;-90
2023/10/17 01:25:34;;;;;;;3.47;1.53;;;;;;;;;;5053843;28;20235;-90
2023/10/17 01:28:06;;;;;;;3.00;1.37;;;;;;;;;;5053686;28;20207;-91
2023/10/17 01:30:34;;;;;;;2.33;1.60;;;;;;;;;;5036041;28;20653;-90
2023/10/17 01:33:01;;;;;;;3.53;1.57;;;;;;;;;;5053499;28;20277;-90
2023/10/17 01:35:28;;;;;;;3.73;1.50;;;;;;;;;;5052930;28;20215;-90
2023/10/17 01:37:56;;;;;;;4.37;1.50;;;;;;;;;;5035889;28;20320;-90
2023/10/17 01:40:26;;;;;;;3.67;1.47;;;;;;;;;;5053095;28;20653;-90
2023/10/17 01:42:56;;;;;;;2.83;1.33;;;;;;;;;;5037230;28;20200;-91
2023/10/17 01:45:25;;;;;;;3.70;1.37;;;;;;;;;;5052887;28;20198;-90
2023/10/17 01:47:53;;;;;;;2.53;1.17;;;;;;;;;;5038089;28;20202;-90
2023/10/17 01:50:20;;;;;;;2.20;1.30;;;;;;;;;;5033498;28;20230;-89
2023/10/17 01:52:49;;;;;;;1.90;1.40;;;;;;;;;;5033668;28;20189;-90
2023/10/17 01:55:17;;;;;;;2.00;1.40;;;;;;;;;;5033253;28;20189;-89
2023/10/17 01:57:46;;;;;;;3.37;1.40;;;;;;;;;;5033936;28;20291;-90
2023/10/17 02:00:23;;;;;;;3.03;1.30;;;;;;;;;;5036703;28;20197;-89
2023/10/17 02:02:51;;;;;;;3.10;1.53;;;;;;;;;;5037155;28;20287;-90
2023/10/17 02:05:19;;;;;;;2.67;1.40;;;;;;;;;;5037267;28;20276;-87
2023/10/17 02:07:46;;;;;;;5.47;1.60;;;;;;;;;;5052043;28;20222;-88
2023/10/17 02:10:17;;;;;;;1.93;1.27;;;;;;;;;;5036569;28;20186;-89
2023/10/17 02:12:45;;;;;;;2.87;1.23;;;;;;;;;;5036838;28;20212;-89
2023/10/17 02:15:19;;;;;;;2.27;1.57;;;;;;;;;;5036804;28;20201;-89
2023/10/17 02:17:48;;;;;;;2.07;1.53;;;;;;;;;;5036503;28;20259;-88
2023/10/17 02:20:30;;;;;;;2.20;1.40;;;;;;;;;;5054843;28;20212;-89
2023/10/17 02:22:59;;;;;;;2.63;1.37;;;;;;;;;;5056871;28;20196;-89
2023/10/17 02:25:32;;;;;;;3.53;1.60;;;;;;;;;;5056143;28;20326;-88
2023/10/17 02:28:00;;;;;;;4.27;1.40;;;;;;;;;;5056299;28;20192;-88
2023/10/17 02:30:27;;;;;;;3.50;1.60;;;;;;;;;;5039234;28;20313;-89
2023/10/17 02:32:56;;;;;;;2.33;1.40;;;;;;;;;;5057927;28;20241;-88
2023/10/17 02:35:30;;;;;;;3.10;1.23;;;;;;;;;;5057024;28;20763;-88
2023/10/17 02:37:59;;;;;;;4.30;1.60;;;;;;;;;;5057167;28;20310;-87
2023/10/17 02:40:27;;;;;;;1.80;1.27;;;;;;;;;;5056946;28;20195;-89
2023/10/17 02:42:55;;;;;;;4.83;1.60;;;;;;;;;;5056096;28;20263;-89
2023/10/17 02:45:25;;;;;;;4.33;1.60;;;;;;;;;;5056082;28;20283;-88
2023/10/17 02:47:54;;;;;;;2.80;1.60;;;;;;;;;;5055456;28;20666;-89
2023/10/17 02:50:41;;;;;;;3.80;1.77;;;;;;;;;;5056694;28;20246;-88
2023/10/17 02:53:12;;;;;;;2.50;1.50;;;;;;;;;;5055515;28;20203;-90
2023/10/17 02:55:40;;;;;;;2.90;1.60;;;;;;;;;;5056328;28;20630;-89
2023/10/17 02:58:07;;;;;;;4.07;1.50;;;;;;;;;;5055567;28;20256;-89
2023/10/17 03:00:35;;;;;;;4.93;1.70;;;;;;;;;;5056363;28;20208;-88
2023/10/17 03:03:11;;;;;;;2.63;1.60;;;;;;;;;;5055855;28;20226;-89
2023/10/17 03:05:41;;;;;;;4.20;1.67;;;;;;;;;;5055706;28;20196;-90
2023/10/17 03:08:15;;;;;;;4.03;1.47;;;;;;;;;;5055638;28;20257;-91
2023/10/17 03:10:43;;;;;;;3.77;1.33;;;;;;;;;;5055089;28;20973;-90
2023/10/17 03:13:22;;;;;;;3.53;1.67;;;;;;;;;;5055905;28;20287;-90
2023/10/17 03:15:50;;;;;;;5.43;1.70;;;;;;;;;;5055338;28;20192;-90
2023/10/17 03:18:16;;;;;;;2.80;1.60;;;;;;;;;;5050638;28;20246;-89
2023/10/17 03:20:51;;;;;;;3.07;1.77;;;;;;;;;;5035014;28;20742;-90
2023/10/17 03:23:18;;;;;;;3.27;1.77;;;;;;;;;;5035486;28;20195;-90
2023/10/17 03:25:47;;;;;;;2.70;1.60;;;;;;;;;;5035258;28;20613;-90
2023/10/17 03:28:15;;;;;;;4.20;1.83;;;;;;;;;;5035569;28;20189;-89
2023/10/17 03:30:43;;;;;;;2.07;1.70;;;;;;;;;;5035295;28;20203;-89
2023/10/17 03:33:13;;;;;;;3.17;1.50;;;;;;;;;;5035082;28;20247;-88
2023/10/17 03:35:56;;;;;;;3.20;1.90;;;;;;;;;;5035200;28;21076;-89
2023/10/17 03:38:26;;;;;;;3.43;1.53;;;;;;;;;;5036072;28;20628;-88
2023/10/17 03:40:54;;;;;;;3.83;1.70;;;;;;;;;;5035728;28;20533;-90
2023/10/17 03:43:24;;;;;;;3.67;2.00;;;;;;;;;;5034845;28;20283;-90
2023/10/17 03:45:58;;;;;;;3.43;1.77;;;;;;;;;;5035022;28;20649;-89
2023/10/17 03:48:28;;;;;;;3.13;1.83;;;;;;;;;;5035197;28;20232;-89
2023/10/17 03:51:08;;;;;;;2.93;1.70;;;;;;;;;;5035102;28;20287;-89
2023/10/17 03:53:42;;;;;;;5.83;2.13;;;;;;;;;;5035106;28;20199;-90
2023/10/17 03:56:11;;;;;;;2.97;1.90;;;;;;;;;;5034777;28;20203;-90
2023/10/17 03:58:54;;;;;;;3.37;1.80;;;;;;;;;;5034734;28;20297;-89
2023/10/17 04:01:23;;;;;;;3.97;2.00;;;;;;;;;;5034871;28;20189;-91
2023/10/17 04:03:53;;;;;;;3.40;1.90;;;;;;;;;;5018286;28;20196;-90
2023/10/17 04:06:24;;;;;;;1.77;1.60;;;;;;;;;;5034675;28;20197;-91
2023/10/17 04:09:15;;;;;;;3.53;2.00;;;;;;;;;;5034331;28;20201;-90
2023/10/17 04:11:43;;;;;;;4.43;2.00;;;;;;;;;;5034266;28;20192;-91
2023/10/17 04:14:10;;;;;;;6.57;2.23;;;;;;;;;;5034548;28;20204;-91
2023/10/17 04:16:39;;;;;;;4.17;2.53;;;;;;;;;;5037427;28;20661;-91
2023/10/17 04:19:07;;;;;;;3.77;1.90;;;;;;;;;;5029896;28;20199;-90
2023/10/17 04:21:38;;;;;;;1.87;1.47;;;;;;;;;;5054655;28;20207;-90
2023/10/17 04:24:09;;;;;;;3.30;2.10;;;;;;;;;;5054442;28;20287;-91
2023/10/17 04:26:36;;;;;;;4.53;1.80;;;;;;;;;;5056354;28;20732;-91
2023/10/17 04:29:12;;;;;;;3.37;1.63;;;;;;;;;;5037795;28;20203;-90
2023/10/17 04:31:43;;;;;;;4.43;1.77;;;;;;;;;;5054731;28;20295;-90
2023/10/17 04:34:14;;;;;;;4.13;1.90;;;;;;;;;;5055799;28;20660;-90
2023/10/17 04:36:42;;;;;;;2.20;1.50;;;;;;;;;;5054543;28;20198;-91
2023/10/17 04:39:13;;;;;;;4.57;1.97;;;;;;;;;;5053866;28;20204;-90
2023/10/17 04:42:04;;;;;;;6.27;1.70;;;;;;;;;;5054577;28;20288;-90
2023/10/17 04:44:34;;;;;;;4.13;1.70;;;;;;;;;;5054321;28;20206;-90
2023/10/17 04:49:50;;;;;;;3.33;1.70;;;;;;;;;;5053730;28;20199;-90
2023/10/17 04:52:19;;;;;;;6.63;1.90;;;;;;;;;;5053816;28;20207;-90
2023/10/17 04:54:53;;;;;;;2.83;2.00;;;;;;;;;;5053639;28;20228;-90
2023/10/17 04:57:19;;;;;;;4.37;1.90;;;;;;;;;;5053607;28;20239;-90
2023/10/17 04:59:55;;;;;;;3.90;1.70;;;;;;;;;;5053694;28;20198;-89
2023/10/17 05:02:41;;;;;;;3.00;2.00;;;;;;;;;;5053436;28;20210;-90
2023/10/17 05:08:11;;;;;;;3.60;1.93;;;;;;;;;;5054036;28;20269;-90
2023/10/17 06:16:58;;;;;;;3.57;2.30;;;;;;;;;;4995406;28;20313;-91
2023/10/17 06:19:26;;;;;;;4.37;2.17;;;;;;;;;;4980776;28;20252;-90
2023/10/17 06:24:57;;;;;;;4.63;2.40;;;;;;;;;;4937554;29;20668;-91
2023/10/17 06:30:33;;;;;;;4.03;2.17;;;;;;;;;;4938394;29;20207;-92
2023/10/17 06:33:17;;;;;;;3.87;2.50;;;;;;;;;;4951087;28;20204;-91
2023/10/17 06:35:46;;;;;;;5.17;2.30;;;;;;;;;;4954675;29;20210;-91
2023/10/17 06:38:16;;;;;;;5.33;2.37;;;;;;;;;;4958324;29;20231;-89
2023/10/17 06:40:46;;;;;;;5.40;2.50;;;;;;;;;;4942597;29;20246;-91
2023/10/17 06:43:27;;;;;;;5.87;2.20;;;;;;;;;;4958679;29;20207;-91
2023/10/17 06:45:55;;;;;;;5.60;2.10;;;;;;;;;;4955753;29;20259;-91
2023/10/17 06:48:32;;;;;;;6.83;2.47;;;;;;;;;;4956152;29;20253;-90
2023/10/17 06:53:48;;;;;;;4.23;2.40;;;;;;;;;;4956682;29;20286;-90
2023/10/17 06:56:17;;;;;;;3.63;2.17;;;;;;;;;;4956097;29;20638;-92
2023/10/17 06:58:44;;;;;;;6.27;2.40;;;;;;;;;;4955722;29;20691;-91
2023/10/17 07:01:24;;;;;;;3.27;2.10;;;;;;;;;;4999366;28;20204;-90
2023/10/17 07:03:55;;;;;;;5.30;2.30;;;;;;;;;;5035144;28;20231;-91
2023/10/17 07:06:25;;;;;;;4.17;2.30;;;;;;;;;;5044935;28;20213;-91
2023/10/17 07:08:53;;;;;;;3.17;2.47;;;;;;;;;;5054065;28;20201;-91
2023/10/17 07:11:30;;;;;;;4.13;2.00;;;;;;;;;;5055938;28;20199;-91
2023/10/17 07:14:22;;;;;;;2.87;2.07;;;;;;;;;;5037513;28;20206;-91
2023/10/17 07:17:00;;;;;;;6.27;2.30;;;;;;;;;;5052042;28;20204;-91
2023/10/17 07:22:15;;;;;;;5.20;2.23;;;;;;;;;;5050903;28;20594;-90
2023/10/17 07:24:48;;;;;;;4.77;2.23;;;;;;;;;;5062498;28;20235;-92
2023/10/17 07:30:13;;;;;;;6.23;2.70;;;;;;;;;;5067121;28;20195;-91
2023/10/17 07:32:46;;;;;;;6.20;2.50;;;;;;;;;;5074629;28;20464;-91
2023/10/17 07:35:23;;;;;;;5.53;2.43;;;;;;;;;;5073653;28;20226;-92
2023/10/17 07:37:55;;;;;;;4.37;2.50;;;;;;;;;;5074631;28;20760;-91
2023/10/17 07:40:33;;;;;;;6.47;2.23;;;;;;;;;;5075736;28;20636;-90
2023/10/17 07:43:02;;;;;;;5.00;2.30;;;;;;;;;;5075119;28;20228;-90
2023/10/17 07:45:38;;;;;;;5.93;2.17;;;;;;;;;;5075907;28;20202;-89
2023/10/17 07:48:19;;;;;;;3.97;2.33;;;;;;;;;;5070041;28;20222;-90
2023/10/17 07:50:50;;;;;;;7.27;2.40;;;;;;;;;;5054946;28;20656;-91
2023/10/17 07:53:20;;;;;;;5.23;2.20;;;;;;;;;;5055547;28;20203;-91
2023/10/17 07:55:48;;;;;;;4.40;2.53;;;;;;;;;;5054551;28;20192;-92
2023/10/17 07:58:35;;;;;;;4.63;2.70;;;;;;;;;;5036631;28;20227;-92
2023/10/17 08:01:04;;;;;;;8.63;2.67;;;;;;;;;;5035416;28;20188;-90
2023/10/17 08:03:31;;;;;;;6.13;2.50;;;;;;;;;;5035580;28;20211;-92
2023/10/17 08:06:05;;;;;;;4.67;2.27;;;;;;;;;;5035501;28;20567;-91
2023/10/17 08:08:34;;;;;;;5.33;2.37;;;;;;;;;;5035377;28;20231;-91
2023/10/17 08:11:05;;;;;;;4.97;2.40;;;;;;;;;;5035450;28;20634;-92
2023/10/17 08:13:32;;;;;;;8.07;2.40;;;;;;;;;;5035361;28;20211;-91
2023/10/17 08:16:06;;;;;;;6.77;2.37;;;;;;;;;;5035356;28;20657;-92
2023/10/17 08:18:39;;;;;;;6.20;2.57;;;;;;;;;;5034146;28;20576;-91
2023/10/17 08:24:02;;;;;;;7.50;2.40;;;;;;;;;;4954784;29;20206;-91
2023/10/17 08:26:32;;;;;;;6.23;2.70;;;;;;;;;;4955370;29;20685;-92
2023/10/17 08:29:00;;;;;;;11.17;2.83;;;;;;;;;;4954921;29;20223;-92
2023/10/17 08:31:35;;;;;;;8.07;2.93;;;;;;;;;;4954338;29;20734;-91
2023/10/17 08:34:09;;;;;;;6.80;2.50;;;;;;;;;;4954635;29;20257;-91
2023/10/17 08:36:47;;;;;;;8.37;2.87;;;;;;;;;;4954652;29;20215;-88
2023/10/17 08:39:27;;;;;;;9.90;2.83;;;;;;;;;;4955074;29;20237;-91
2023/10/17 08:42:05;;;;;;;8.63;3.10;;;;;;;;;;4955205;29;20226;-92
2023/10/17 08:44:32;;;;;;;10.10;2.87;;;;;;;;;;4954960;29;20991;-91
2023/10/17 08:47:00;;;;;;;10.00;2.83;;;;;;;;;;4954855;29;20246;-93
2023/10/17 08:49:28;;;;;;;11.43;2.60;;;;;;;;;;4954375;29;20728;-91
2023/10/17 08:51:57;;;;;;;4.63;2.27;;;;;;;;;;4954156;29;20203;-92
2023/10/17 08:54:27;;;;;;;4.60;2.63;;;;;;;;;;4954005;29;20736;-92
2023/10/17 08:56:55;;;;;;;6.50;2.53;;;;;;;;;;4954890;29;20621;-92
2023/10/17 08:59:45;;;;;;;5.17;2.47;;;;;;;;;;4980632;28;20263;-92
2023/10/17 09:02:22;;;;;;;4.73;2.63;;;;;;;;;;5034079;28;20326;-91
2023/10/17 09:04:50;;;;;;;4.73;2.47;;;;;;;;;;5034184;28;20199;-91
2023/10/17 09:07:31;;;;;;;8.50;2.87;;;;;;;;;;5033194;28;20207;-90
2023/10/17 09:10:04;;;;;;;3.43;2.57;;;;;;;;;;5034201;28;20579;-91
2023/10/17 09:12:36;;;;;;;10.97;2.80;;;;;;;;;;5033646;28;20587;-92
2023/10/17 09:15:06;;;;;;;3.30;2.60;;;;;;;;;;5033187;28;20231;-91
2023/10/17 09:17:38;;;;;;;7.13;2.80;;;;;;;;;;5033432;28;20184;-91
2023/10/17 09:20:11;;;;;;;5.43;2.90;;;;;;;;;;5033629;28;20703;-92
2023/10/17 09:22:43;;;;;;;4.63;2.57;;;;;;;;;;5033828;28;20267;-91
2023/10/17 09:25:19;;;;;;;6.13;2.60;;;;;;;;;;5033783;28;20228;-92
2023/10/17 09:27:50;;;;;;;3.00;2.40;;;;;;;;;;5033603;28;20188;-92
2023/10/17 09:30:18;;;;;;;4.87;2.50;;;;;;;;;;5033629;28;20197;-90
2023/10/17 09:32:46;;;;;;;6.40;3.20;;;;;;;;;;5033768;28;20558;-91
2023/10/17 09:35:15;;;;;;;8.17;2.90;;;;;;;;;;5033800;28;20200;-90
2023/10/17 09:37:44;;;;;;;5.00;2.50;;;;;;;;;;5033460;28;20208;-91
2023/10/17 09:40:13;;;;;;;6.80;2.63;;;;;;;;;;5033503;28;20227;-91
2023/10/17 09:42:45;;;;;;;8.33;2.70;;;;;;;;;;5033962;28;20244;-91
2023/10/17 09:45:13;;;;;;;9.47;3.10;;;;;;;;;;5033389;28;20283;-92
2023/10/17 09:47:44;;;;;;;10.13;3.00;;;;;;;;;;5034321;28;20231;-92
2023/10/17 09:50:13;;;;;;;14.97;2.87;;;;;;;;;;5033280;28;20255;-92
2023/10/17 09:52:41;;;;;;;6.53;2.77;;;;;;;;;;5033723;28;20212;-92
2023/10/17 09:55:13;;;;;;;6.70;2.70;;;;;;;;;;5033847;28;20228;-91
2023/10/17 09:57:43;;;;;;;7.80;3.13;;;;;;;;;;5033932;28;20204;-92
2023/10/17 10:00:14;;;;;;;5.53;2.70;;;;;;;;;;5033039;28;20592;-92
2023/10/17 10:02:43;;;;;;;5.80;2.50;;;;;;;;;;5033408;28;20283;-91
2023/10/17 10:05:20;;;;;;;5.13;2.80;;;;;;;;;;5033319;28;20287;-92
2023/10/17 10:07:48;;;;;;;5.90;2.60;;;;;;;;;;5033357;28;20692;-91
2023/10/17 10:10:31;;;;;;;8.17;2.80;;;;;;;;;;5033250;28;20613;-92
2023/10/17 10:13:01;;;;;;;5.90;2.70;;;;;;;;;;5032015;28;20622;-91
2023/10/17 10:15:50;;;;;;;5.00;2.40;;;;;;;;;;5033615;28;20197;-92
2023/10/17 10:18:18;;;;;;;9.50;2.60;;;;;;;;;;5032788;28;20250;-91
2023/10/17 10:20:55;;;;;;;7.87;2.83;;;;;;;;;;5037274;28;20200;-92
2023/10/17 10:23:31;;;;;;;4.23;2.60;;;;;;;;;;5036086;28;20208;-91
2023/10/17 10:26:26;;;;;;;6.67;3.20;;;;;;;;;;5036464;28;20282;-91
2023/10/17 10:29:15;;;;;;;5.17;2.77;;;;;;;;;;4975653;28;20237;-91
2023/10/17 10:31:43;;;;;;;6.77;3.30;;;;;;;;;;4976556;28;20202;-92
2023/10/17 10:34:11;;;;;;;4.77;2.70;;;;;;;;;;4975849;28;20675;-91
2023/10/17 10:36:39;;;;;;;6.38;3.45;;;;;;;;;;4974875;28;20685;-91
2023/10/17 10:39:12;;;;;;;7.00;3.30;;;;;;;;;;4977736;28;20518;-90
2023/10/17 10:41:40;;;;;;;4.43;3.03;;;;;;;;;;4980105;28;20659;-92
2023/10/17 10:44:08;;;;;;;5.68;3.38;;;;;;;;;;4980219;28;20199;-91
2023/10/17 10:46:36;;;;;;;9.50;3.13;;;;;;;;;;4980596;28;20206;-91
2023/10/17 10:49:05;;;;;;;4.40;2.60;;;;;;;;;;4980407;28;20261;-90
2023/10/17 10:51:33;;;;;;;7.75;2.92;;;;;;;;;;4975447;28;20195;-91
2023/10/17 10:54:00;;;;;;;5.78;2.70;;;;;;;;;;4975397;28;20215;-91
2023/10/17 10:56:28;;;;;;;6.30;3.10;;;;;;;;;;4975341;28;20282;-91
2023/10/17 10:58:56;;;;;;;7.95;3.28;;;;;;;;;;4975370;28;20602;-89
2023/10/17 11:01:25;;;;;;;6.53;3.03;;;;;;;;;;4975456;28;20608;-91
2023/10/17 11:03:53;;;;;;;3.50;2.75;;;;;;;;;;4985489;28;20197;-90
2023/10/17 11:06:24;;;;;;;6.85;3.10;;;;;;;;;;5035862;28;20251;-90
2023/10/17 11:08:52;;;;;;;6.75;2.80;;;;;;;;;;5035722;28;20630;-90
2023/10/17 11:11:20;;;;;;;5.88;2.38;;;;;;;;;;5035617;28;20204;-90
2023/10/17 11:13:48;;;;;;;7.18;2.60;;;;;;;;;;5035375;28;20303;-90
2023/10/17 11:16:18;;;;;;;5.45;2.45;;;;;;;;;;5035760;28;20239;-90
2023/10/17 11:18:47;;;;;;;6.30;2.75;;;;;;;;;;5035360;28;20228;-89
2023/10/17 11:21:16;;;;;;;7.25;2.50;;;;;;;;;;5035916;28;20224;-90
2023/10/17 11:23:46;;;;;;;4.78;2.88;;;;;;;;;;5035237;28;20661;-90
2023/10/17 11:26:14;;;;;;;7.53;3.00;;;;;;;;;;5034914;28;20595;-90
2023/10/17 11:28:42;;;;;;;5.05;3.08;;;;;;;;;;5035898;28;20200;-90
2023/10/17 11:31:21;;;;;;;5.25;2.75;;;;;;;;;;5034836;28;20209;-90
2023/10/17 11:33:55;;;;;;;6.40;2.90;;;;;;;;;;5035356;28;20200;-89
2023/10/17 11:36:23;;;;;;;5.65;2.58;;;;;;;;;;5035082;28;20196;-91
2023/10/17 11:38:55;;;;;;;7.78;2.55;;;;;;;;;;5035089;28;20224;-89
2023/10/17 11:41:28;;;;;;;5.13;2.63;;;;;;;;;;5034648;28;20553;-92
2023/10/17 11:43:56;;;;;;;5.75;2.58;;;;;;;;;;5035449;28;20204;-89
2023/10/17 11:46:29;;;;;;;5.43;2.72;;;;;;;;;;5035114;28;20278;-88
2023/10/17 11:49:11;;;;;;;6.13;2.70;;;;;;;;;;5034876;28;20204;-89
2023/10/17 11:51:40;;;;;;;6.32;2.47;;;;;;;;;;5034666;28;20201;-90
2023/10/17 11:54:08;;;;;;;5.65;2.85;;;;;;;;;;5034852;28;20238;-90
2023/10/17 11:56:36;;;;;;;6.43;2.60;;;;;;;;;;5034936;28;20280;-89
2023/10/17 11:59:04;;;;;;;4.38;2.47;;;;;;;;;;5034131;28;20719;-90
2023/10/17 12:01:33;;;;;;;5.85;2.92;;;;;;;;;;5034557;28;20608;-90
2023/10/17 12:04:06;;;;;;;3.50;2.25;;;;;;;;;;5034969;28;20206;-90
2023/10/17 12:06:33;;;;;;;4.35;2.50;;;;;;;;;;5035223;28;20774;-90
2023/10/17 12:09:17;;;;;;;7.13;2.72;;;;;;;;;;5034430;28;20842;-90
2023/10/17 12:11:46;;;;;;;5.65;2.55;;;;;;;;;;5033911;28;20216;-89
2023/10/17 12:14:19;;;;;;;5.85;2.78;;;;;;;;;;5034591;28;20584;-90
2023/10/17 12:16:47;;;;;;;6.53;2.58;;;;;;;;;;5034388;28;20200;-90
2023/10/17 12:19:16;;;;;;;5.53;2.40;;;;;;;;;;5034364;28;20286;-89
2023/10/17 12:21:47;;;;;;;8.85;2.50;;;;;;;;;;5034203;28;20274;-89
2023/10/17 12:24:19;;;;;;;5.97;2.42;;;;;;;;;;5034194;28;20204;-89
2023/10/17 12:26:47;;;;;;;7.45;2.70;;;;;;;;;;5034352;28;20200;-91
2023/10/17 12:29:14;;;;;;;6.30;2.50;;;;;;;;;;5034593;28;20206;-89
2023/10/17 12:31:41;;;;;;;8.23;3.10;;;;;;;;;;5033869;28;20723;-90
2023/10/17 12:34:09;;;;;;;7.68;2.75;;;;;;;;;;5034181;28;20551;-89
2023/10/17 12:36:36;;;;;;;4.85;2.28;;;;;;;;;;5033679;28;20646;-89
2023/10/17 12:39:03;;;;;;;4.00;2.55;;;;;;;;;;5033990;28;20201;-89
2023/10/17 12:41:32;;;;;;;4.72;2.50;;;;;;;;;;5035474;28;20231;-89
2023/10/17 12:44:04;;;;;;;6.07;2.50;;;;;;;;;;5036659;28;20412;-88
2023/10/17 12:46:31;;;;;;;10.25;2.55;;;;;;;;;;5035965;28;20201;-89
2023/10/17 12:48:59;;;;;;;6.20;2.67;;;;;;;;;;5036633;28;20704;-89
2023/10/17 12:51:27;;;;;;;5.07;2.42;;;;;;;;;;5036606;28;20199;-88
2023/10/17 12:53:55;;;;;;;5.82;2.33;;;;;;;;;;5034033;28;20195;-89
2023/10/17 12:56:22;;;;;;;7.45;2.42;;;;;;;;;;5033520;28;20188;-89
2023/10/17 12:58:52;;;;;;;7.13;2.40;;;;;;;;;;5033117;28;20224;-89
2023/10/17 13:01:24;;;;;;;5.30;2.40;;;;;;;;;;5033423;28;20235;-89
2023/10/17 13:03:53;;;;;;;8.95;2.60;;;;;;;;;;5033268;28;20283;-89
2023/10/17 13:06:24;;;;;;;5.72;2.38;;;;;;;;;;5033015;28;20193;-89
2023/10/17 13:08:56;;;;;;;6.85;2.20;;;;;;;;;;5033065;28;20768;-89
2023/10/17 13:11:23;;;;;;;8.77;2.67;;;;;;;;;;5033776;28;20192;-88
2023/10/17 13:13:52;;;;;;;11.68;2.75;;;;;;;;;;5032573;28;20200;-89
2023/10/17 13:16:21;;;;;;;6.35;2.30;;;;;;;;;;5034523;28;20204;-87
2023/10/17 13:18:50;;;;;;;6.05;2.30;;;;;;;;;;5034449;28;20246;-89
2023/10/17 13:21:17;;;;;;;5.80;2.42;;;;;;;;;;5036354;28;20591;-89
2023/10/17 13:23:45;;;;;;;7.53;2.50;;;;;;;;;;5033329;28;20257;-89
2023/10/17 13:26:12;;;;;;;6.97;2.70;;;;;;;;;;5033394;28;20298;-88
2023/10/17 13:28:43;;;;;;;6.75;2.35;;;;;;;;;;5032744;28;20200;-87
2023/10/17 13:31:15;;;;;;;5.57;2.28;;;;;;;;;;5033687;28;20641;-90
2023/10/17 13:33:43;;;;;;;7.53;2.13;;;;;;;;;;5041241;28;20237;-89
2023/10/17 13:36:11;;;;;;;4.45;2.22;;;;;;;;;;5052533;28;20282;-88
2023/10/17 13:38:44;;;;;;;8.23;2.42;;;;;;;;;;5052995;28;20638;-86
2023/10/17 13:41:15;;;;;;;6.13;2.80;;;;;;;;;;5052970;28;20235;-89
2023/10/17 13:43:43;;;;;;;5.97;2.60;;;;;;;;;;5053184;28;20214;-89
2023/10/17 13:46:13;;;;;;;5.47;2.45;;;;;;;;;;5053327;28;20208;-90
2023/10/17 13:48:46;;;;;;;5.45;2.53;;;;;;;;;;5053349;28;20282;-90
2023/10/17 13:51:14;;;;;;;9.73;2.35;;;;;;;;;;5052883;28;20286;-90
2023/10/17 13:53:43;;;;;;;5.50;2.25;;;;;;;;;;5053535;28;20227;-89
2023/10/17 13:56:12;;;;;;;6.50;2.38;;;;;;;;;;5056638;28;20463;-89
2023/10/17 13:58:41;;;;;;;7.97;2.60;;;;;;;;;;5056452;28;20679;-89
2023/10/17 14:03:52;;;;;;;5.18;2.15;;;;;;;;;;5056298;28;20203;-90
2023/10/17 14:06:20;;;;;;;6.90;2.22;;;;;;;;;;5057071;28;20241;-89
2023/10/17 14:08:47;;;;;;;5.57;2.55;;;;;;;;;;5056427;28;20682;-90
2023/10/17 14:11:17;;;;;;;4.72;2.20;;;;;;;;;;5056653;28;20246;-89
2023/10/17 14:13:45;;;;;;;4.82;2.33;;;;;;;;;;5056254;28;20249;-88
2023/10/17 14:16:12;;;;;;;6.20;2.40;;;;;;;;;;5056223;28;20200;-90
2023/10/17 14:18:43;;;;;;;10.18;2.47;;;;;;;;;;5057056;28;20258;-89
2023/10/17 14:21:23;;;;;;;3.47;2.15;;;;;;;;;;5055846;28;20237;-88
2023/10/17 14:23:58;;;;;;;6.32;2.63;;;;;;;;;;5056252;28;20644;-89
2023/10/17 14:26:27;;;;;;;5.38;2.50;;;;;;;;;;5056314;28;20271;-89
2023/10/17 14:29:00;;;;;;;7.57;2.50;;;;;;;;;;5056012;28;20200;-88
2023/10/17 14:31:29;;;;;;;8.80;2.67;;;;;;;;;;5055980;28;20200;-88
2023/10/17 14:33:57;;;;;;;6.65;2.97;;;;;;;;;;5055567;28;20196;-88
2023/10/17 14:36:27;;;;;;;6.07;2.33;;;;;;;;;;5056223;28;20203;-89
2023/10/17 14:38:58;;;;;;;9.63;2.70;;;;;;;;;;5056036;28;20196;-88
2023/10/17 14:41:25;;;;;;;4.97;2.42;;;;;;;;;;5055623;28;20243;-89
2023/10/17 14:43:54;;;;;;;5.53;2.47;;;;;;;;;;5055621;28;20204;-88
2023/10/17 14:46:22;;;;;;;5.22;2.10;;;;;;;;;;5055438;28;20283;-89
2023/10/17 14:48:49;;;;;;;7.90;2.70;;;;;;;;;;5055421;28;20203;-88
2023/10/17 14:51:16;;;;;;;6.20;2.75;;;;;;;;;;5056256;28;20254;-88
2023/10/17 14:53:48;;;;;;;11.30;2.60;;;;;;;;;;5055717;28;20204;-88
2023/10/17 14:56:15;;;;;;;6.40;2.47;;;;;;;;;;5056637;28;20269;-89
2023/10/17 14:58:47;;;;;;;7.57;2.58;;;;;;;;;;5057689;28;20227;-88
2023/10/17 15:01:16;;;;;;;7.57;2.67;;;;;;;;;;5055870;28;20231;-89
2023/10/17 15:03:43;;;;;;;7.03;2.65;;;;;;;;;;5055687;28;20675;-86
2023/10/17 15:06:10;;;;;;;4.60;2.28;;;;;;;;;;5054507;28;20283;-89
2023/10/17 15:08:38;;;;;;;5.40;2.45;;;;;;;;;;5054993;28;20334;-85
2023/10/17 15:11:07;;;;;;;5.38;2.25;;;;;;;;;;5055280;28;20204;-89
2023/10/17 15:13:34;;;;;;;5.72;2.63;;;;;;;;;;5055081;28;20251;-88
2023/10/17 15:16:02;;;;;;;7.13;2.33;;;;;;;;;;5054966;28;20562;-89
2023/10/17 15:18:32;;;;;;;4.20;2.30;;;;;;;;;;5054596;28;20656;-89
2023/10/17 15:21:08;;;;;;;5.93;2.13;;;;;;;;;;5054859;28;20750;-87
2023/10/17 15:23:35;;;;;;;8.02;2.72;;;;;;;;;;5054847;28;20209;-88
2023/10/17 15:26:02;;;;;;;11.20;2.65;;;;;;;;;;5054827;28;20236;-90
2023/10/17 15:28:32;;;;;;;7.13;2.35;;;;;;;;;;5054622;28;20199;-87
2023/10/17 15:31:05;;;;;;;6.95;2.50;;;;;;;;;;5054781;28;20234;-88
2023/10/17 15:33:33;;;;;;;6.32;2.47;;;;;;;;;;5048540;28;20240;-88
2023/10/17 15:36:03;;;;;;;8.27;2.60;;;;;;;;;;5034405;28;20271;-86
2023/10/17 15:38:31;;;;;;;5.78;2.00;;;;;;;;;;5046125;28;20729;-89
2023/10/17 15:40:58;;;;;;;6.25;2.20;;;;;;;;;;5054203;28;20230;-89
2023/10/17 15:43:26;;;;;;;5.45;2.28;;;;;;;;;;5054309;28;20348;-87
2023/10/17 15:45:55;;;;;;;8.88;3.90;;;;;;;;;;5073757;28;20195;-88
2023/10/17 15:48:23;;;;;;;5.78;2.67;;;;;;;;;;5073712;28;20223;-89
2023/10/17 15:50:54;;;;;;;8.55;2.25;;;;;;;;;;5073689;28;20203;-88
2023/10/17 15:53:21;;;;;;;9.73;2.70;;;;;;;;;;5054040;28;20195;-88
2023/10/17 15:55:53;;;;;;;5.07;2.30;;;;;;;;;;5053232;28;20624;-89
2023/10/17 15:58:21;;;;;;;7.32;2.15;;;;;;;;;;5054127;28;20200;-86
2023/10/17 16:00:48;;;;;;;3.42;2.10;;;;;;;;;;5056859;28;20325;-87
2023/10/17 16:03:17;;;;;;;4.13;2.25;;;;;;;;;;5074305;28;20237;-90
2023/10/17 16:05:45;;;;;;;5.05;2.30;;;;;;;;;;5074303;28;20626;-88
2023/10/17 16:08:12;;;;;;;6.25;1.98;;;;;;;;;;5073690;28;20233;-88
2023/10/17 16:10:40;;;;;;;13.10;2.60;;;;;;;;;;5074175;28;20741;-90
2023/10/17 16:13:10;;;;;;;3.80;2.00;;;;;;;;;;5074248;28;20199;-89
2023/10/17 16:15:37;;;;;;;7.50;2.30;;;;;;;;;;5073619;28;20203;-89
2023/10/17 16:18:05;;;;;;;7.85;2.42;;;;;;;;;;5070760;28;20207;-88
2023/10/17 16:20:36;;;;;;;8.55;2.85;;;;;;;;;;5054058;28;20250;-87
2023/10/17 16:23:05;;;;;;;10.85;2.83;;;;;;;;;;5054243;28;20249;-90
2023/10/17 16:25:32;;;;;;;5.25;2.40;;;;;;;;;;5054294;28;20254;-89
2023/10/17 16:28:07;;;;;;;6.53;2.20;;;;;;;;;;5057611;28;20626;-89
2023/10/17 16:30:35;;;;;;;9.05;2.35;;;;;;;;;;5061507;28;20229;-92
2023/10/17 16:33:03;;;;;;;7.75;2.30;;;;;;;;;;5056014;28;20208;-90
2023/10/17 16:35:32;;;;;;;10.57;2.75;;;;;;;;;;5064738;28;20285;-89
2023/10/17 16:38:01;;;;;;;5.97;2.60;;;;;;;;;;5074393;28;20282;-91